Time;durP1;ratioP1;P1;durP2;ratioP2;P2;SDS_P1;SDS_P2;PMS_P1;PMS_P2;Temp;Humidity;BMP_temperature;BMP_pressure;BME280_temperature;BME280_humidity;BME280_pressure;Samples;Min_cycle;Max_cycle;Signal;HPM_P1;HPM_P2
2024/02/26 00:02:18;;;;;;;3.90;1.77;;;6.30;99.90;;;;;;5062665;28;20041;-76
2024/02/26 00:04:44;;;;;;;2.33;1.15;;;6.40;99.90;;;;;;5060689;28;20444;-74
2024/02/26 00:07:09;;;;;;;2.13;1.00;;;6.40;99.90;;;;;;5061079;28;20025;-75
2024/02/26 00:09:37;;;;;;;3.58;1.63;;;6.40;99.90;;;;;;5061607;28;20063;-74
2024/02/26 00:12:03;;;;;;;2.50;1.30;;;6.30;99.90;;;;;;5061420;28;20048;-75
2024/02/26 00:14:29;;;;;;;2.33;1.00;;;6.30;99.90;;;;;;5062243;28;20067;-75
2024/02/26 00:16:55;;;;;;;2.10;1.50;;;6.30;99.90;;;;;;5060840;28;20090;-73
2024/02/26 00:19:21;;;;;;;4.25;1.10;;;6.20;99.90;;;;;;5063659;28;20052;-76
2024/02/26 00:21:46;;;;;;;2.30;1.38;;;6.20;99.90;;;;;;5061198;28;20507;-75
2024/02/26 00:24:12;;;;;;;2.80;1.30;;;6.20;99.90;;;;;;5063223;28;20040;-72
2024/02/26 00:26:37;;;;;;;2.42;1.08;;;6.20;99.90;;;;;;5062340;28;20405;-74
2024/02/26 00:29:03;;;;;;;2.80;1.45;;;6.10;99.90;;;;;;5061904;28;20033;-75
2024/02/26 00:31:28;;;;;;;3.72;1.20;;;6.10;99.90;;;;;;5063487;28;20052;-75
2024/02/26 00:33:54;;;;;;;2.40;1.13;;;6.10;99.90;;;;;;5045686;28;20028;-74
2024/02/26 00:36:19;;;;;;;3.13;1.58;;;6.00;99.90;;;;;;5064084;28;20044;-75
2024/02/26 00:38:50;;;;;;;2.60;1.58;;;6.00;99.90;;;;;;5059473;28;20025;-75
2024/02/26 00:41:19;;;;;;;6.03;1.33;;;6.00;99.90;;;;;;5064815;28;20062;-75
2024/02/26 00:43:45;;;;;;;4.85;1.23;;;6.00;99.90;;;;;;5057994;28;20044;-74
2024/02/26 00:46:10;;;;;;;2.05;1.40;;;5.90;99.90;;;;;;5063231;28;20041;-75
2024/02/26 00:48:37;;;;;;;3.08;1.20;;;5.90;99.90;;;;;;5063074;28;20040;-76
2024/02/26 00:51:05;;;;;;;3.15;1.65;;;5.90;99.90;;;;;;5063052;28;20037;-75
2024/02/26 00:53:31;;;;;;;3.65;1.35;;;6.00;99.90;;;;;;5060884;28;20116;-74
2024/02/26 00:55:58;;;;;;;3.03;1.45;;;5.90;99.90;;;;;;5063672;28;20124;-75
2024/02/26 00:58:24;;;;;;;3.38;1.42;;;5.90;99.90;;;;;;5047622;28;20037;-75
2024/02/26 01:00:50;;;;;;;3.17;2.15;;;6.00;99.90;;;;;;5043457;28;20083;-75
2024/02/26 01:03:16;;;;;;;2.60;1.52;;;5.90;99.90;;;;;;5062738;28;20804;-75
2024/02/26 01:05:42;;;;;;;5.15;1.73;;;5.90;99.90;;;;;;5058742;28;20041;-72
2024/02/26 01:08:08;;;;;;;2.58;1.63;;;5.90;99.90;;;;;;5061414;28;20598;-74
2024/02/26 01:10:33;;;;;;;3.80;2.05;;;6.00;99.90;;;;;;5061768;28;20037;-75
2024/02/26 01:12:59;;;;;;;4.00;1.63;;;6.00;99.90;;;;;;5049760;28;20021;-75
2024/02/26 01:15:25;;;;;;;4.85;1.80;;;6.00;99.90;;;;;;5068637;28;20402;-75
2024/02/26 01:17:51;;;;;;;4.63;1.90;;;6.00;99.90;;;;;;5066995;28;20543;-74
2024/02/26 01:20:17;;;;;;;3.13;1.70;;;5.90;99.90;;;;;;5068830;28;20028;-75
2024/02/26 01:22:43;;;;;;;6.03;1.80;;;6.00;99.90;;;;;;5067424;28;20032;-75
2024/02/26 01:25:11;;;;;;;1.95;1.25;;;6.00;99.90;;;;;;5068405;28;20041;-73
2024/02/26 01:27:37;;;;;;;2.72;1.60;;;6.00;99.90;;;;;;5067026;28;20032;-74
2024/02/26 01:30:03;;;;;;;2.45;1.70;;;6.00;99.90;;;;;;5068933;28;20086;-75
2024/02/26 01:32:30;;;;;;;2.88;1.33;;;6.00;99.90;;;;;;5063422;28;20116;-74
2024/02/26 01:34:56;;;;;;;4.55;2.28;;;6.10;99.90;;;;;;5042424;28;21067;-75
2024/02/26 01:37:21;;;;;;;4.05;1.58;;;6.00;99.90;;;;;;5057803;28;20114;-74
2024/02/26 01:39:47;;;;;;;2.15;1.50;;;6.00;99.90;;;;;;5063938;28;20028;-75
2024/02/26 01:42:12;;;;;;;2.88;1.60;;;6.00;99.90;;;;;;5068325;28;20036;-74
2024/02/26 01:44:38;;;;;;;3.85;2.10;;;6.10;99.90;;;;;;5049673;28;20029;-74
2024/02/26 01:47:05;;;;;;;2.60;1.67;;;6.00;99.90;;;;;;5050058;28;20028;-74
2024/02/26 01:49:31;;;;;;;2.90;1.55;;;6.00;99.90;;;;;;5064156;28;20051;-75
2024/02/26 01:51:57;;;;;;;2.80;1.98;;;6.10;99.90;;;;;;5049100;28;20033;-75
2024/02/26 01:54:23;;;;;;;2.55;1.45;;;6.10;99.90;;;;;;5065121;28;20040;-74
2024/02/26 01:56:50;;;;;;;2.55;1.55;;;6.10;99.90;;;;;;5063743;28;20393;-74
2024/02/26 01:59:16;;;;;;;3.40;1.60;;;6.10;99.90;;;;;;5060558;28;20060;-75
2024/02/26 02:01:47;;;;;;;3.08;1.75;;;6.10;99.90;;;;;;5055666;28;20032;-74
2024/02/26 02:04:14;;;;;;;3.83;1.83;;;6.10;99.90;;;;;;5058263;28;20124;-74
2024/02/26 02:06:41;;;;;;;5.45;1.70;;;6.10;99.90;;;;;;5060260;28;20037;-74
2024/02/26 02:09:08;;;;;;;4.00;1.95;;;6.10;99.90;;;;;;5059181;28;20044;-75
2024/02/26 02:11:34;;;;;;;2.85;1.88;;;6.20;99.90;;;;;;5060444;28;20045;-75
2024/02/26 02:13:59;;;;;;;3.95;1.95;;;6.10;99.90;;;;;;5060064;28;20511;-74
2024/02/26 02:16:25;;;;;;;5.40;2.00;;;6.10;99.90;;;;;;5060321;28;20033;-75
2024/02/26 02:18:51;;;;;;;3.92;1.67;;;6.10;99.90;;;;;;5061018;28;20028;-74
2024/02/26 02:21:16;;;;;;;4.38;2.05;;;6.10;99.90;;;;;;5059705;28;20033;-74
2024/02/26 02:23:46;;;;;;;4.22;1.75;;;6.10;99.90;;;;;;5061770;28;20644;-74
2024/02/26 02:26:13;;;;;;;3.27;1.47;;;6.10;99.90;;;;;;5062441;28;20028;-75
2024/02/26 02:28:39;;;;;;;2.88;1.40;;;6.10;99.90;;;;;;5060340;28;20344;-74
2024/02/26 02:31:05;;;;;;;9.23;2.70;;;6.10;99.90;;;;;;5048305;28;20040;-74
2024/02/26 02:33:31;;;;;;;4.15;1.60;;;6.10;99.90;;;;;;5061601;28;20086;-74
2024/02/26 02:35:57;;;;;;;3.80;1.90;;;6.20;99.90;;;;;;5063561;28;20021;-75
2024/02/26 02:38:25;;;;;;;3.80;1.88;;;6.20;99.90;;;;;;5065648;28;20101;-75
2024/02/26 02:40:51;;;;;;;6.47;1.98;;;6.10;99.90;;;;;;5046583;28;20028;-75
2024/02/26 02:43:17;;;;;;;5.47;1.80;;;6.10;99.90;;;;;;5062514;28;20035;-73
2024/02/26 02:45:42;;;;;;;4.78;1.60;;;6.10;99.90;;;;;;5046132;28;20038;-74
2024/02/26 02:48:08;;;;;;;7.63;1.90;;;6.10;99.90;;;;;;5063043;28;20115;-75
2024/02/26 02:50:33;;;;;;;2.60;1.70;;;6.10;99.90;;;;;;5062250;28;20115;-75
2024/02/26 02:52:59;;;;;;;3.75;1.90;;;6.10;99.90;;;;;;5060631;28;20120;-74
2024/02/26 02:55:25;;;;;;;3.88;2.03;;;6.10;99.90;;;;;;5064670;28;20045;-75
2024/02/26 02:57:50;;;;;;;6.00;2.50;;;6.10;99.90;;;;;;5062212;28;20458;-75
2024/02/26 03:00:16;;;;;;;3.88;1.55;;;6.10;99.90;;;;;;5062679;28;20038;-74
2024/02/26 03:02:42;;;;;;;4.97;2.38;;;6.20;99.90;;;;;;5048287;28;20054;-71
2024/02/26 03:05:08;;;;;;;3.78;1.58;;;6.10;99.90;;;;;;5065187;28;20419;-75
2024/02/26 03:07:34;;;;;;;7.25;1.98;;;6.10;99.90;;;;;;5063921;28;20029;-75
2024/02/26 03:09:59;;;;;;;4.43;2.17;;;6.20;99.90;;;;;;5047428;28;20548;-75
2024/02/26 03:12:25;;;;;;;3.45;1.90;;;6.20;99.90;;;;;;5045613;28;20131;-75
2024/02/26 03:14:51;;;;;;;3.67;1.90;;;6.20;99.90;;;;;;5042883;28;20035;-74
2024/02/26 03:17:17;;;;;;;4.85;2.00;;;6.20;99.90;;;;;;5062165;28;20068;-75
2024/02/26 03:19:46;;;;;;;4.60;2.47;;;6.10;99.90;;;;;;5061802;28;20068;-73
2024/02/26 03:22:12;;;;;;;4.05;2.40;;;6.10;99.90;;;;;;5061282;28;20075;-75
2024/02/26 03:24:38;;;;;;;3.83;2.20;;;6.10;99.90;;;;;;5061784;28;20052;-75
2024/02/26 03:27:09;;;;;;;5.70;2.40;;;6.10;99.90;;;;;;5060166;28;20037;-75
2024/02/26 03:29:37;;;;;;;5.28;2.80;;;6.10;99.90;;;;;;5060622;28;20516;-74
2024/02/26 03:32:03;;;;;;;4.40;2.33;;;6.10;99.90;;;;;;5059097;28;20055;-75
2024/02/26 03:34:30;;;;;;;4.53;2.17;;;6.10;99.90;;;;;;5061421;28;20047;-74
2024/02/26 03:36:56;;;;;;;7.07;2.85;;;6.10;99.90;;;;;;5040847;28;20215;-75
2024/02/26 03:39:22;;;;;;;8.98;2.53;;;6.00;99.90;;;;;;5040170;28;20505;-75
2024/02/26 03:41:48;;;;;;;4.00;2.60;;;6.00;99.90;;;;;;5035520;28;20927;-75
2024/02/26 03:44:13;;;;;;;5.22;2.72;;;6.00;99.90;;;;;;5040931;28;20041;-75
2024/02/26 03:46:39;;;;;;;5.03;2.67;;;6.00;99.90;;;;;;5038230;28;20036;-75
2024/02/26 03:49:04;;;;;;;6.03;2.75;;;5.90;99.90;;;;;;5038451;28;20092;-75
2024/02/26 03:51:31;;;;;;;7.35;2.75;;;5.90;99.90;;;;;;5042306;28;20577;-75
2024/02/26 03:53:58;;;;;;;8.45;3.28;;;6.00;99.90;;;;;;5038679;28;20041;-75
2024/02/26 03:56:24;;;;;;;5.90;2.90;;;5.90;99.90;;;;;;5039232;28;20608;-75
2024/02/26 03:58:49;;;;;;;5.53;2.53;;;5.90;99.90;;;;;;5034017;28;20026;-75
2024/02/26 04:01:15;;;;;;;6.00;2.97;;;5.90;99.90;;;;;;5025020;28;20040;-74
2024/02/26 04:03:41;;;;;;;7.38;3.10;;;5.90;99.90;;;;;;5042073;28;20033;-73
2024/02/26 04:06:10;;;;;;;4.78;2.53;;;5.90;99.90;;;;;;5042790;28;20033;-77
2024/02/26 04:08:36;;;;;;;6.57;3.13;;;5.90;99.90;;;;;;5019780;28;20164;-74
2024/02/26 04:11:02;;;;;;;4.85;2.83;;;5.90;99.90;;;;;;5038989;28;20139;-75
2024/02/26 04:13:28;;;;;;;4.47;2.42;;;5.90;99.90;;;;;;5038696;28;20587;-74
2024/02/26 04:15:53;;;;;;;6.60;3.35;;;5.90;99.90;;;;;;5034788;28;20037;-75
2024/02/26 04:18:19;;;;;;;8.25;2.80;;;5.90;99.90;;;;;;5036731;28;20513;-75
2024/02/26 04:20:44;;;;;;;6.68;3.53;;;5.90;99.90;;;;;;5035868;28;20072;-74
2024/02/26 04:23:10;;;;;;;6.28;3.15;;;5.90;99.90;;;;;;5038744;28;20037;-74
2024/02/26 04:25:35;;;;;;;6.25;3.28;;;5.90;99.90;;;;;;5041147;28;20328;-73
2024/02/26 04:28:01;;;;;;;7.43;3.47;;;5.90;99.90;;;;;;4998766;28;1033752;-75
2024/02/26 04:30:26;;;;;;;5.93;3.03;;;5.90;99.90;;;;;;5038853;28;20403;-75
2024/02/26 04:32:52;;;;;;;7.68;3.67;;;6.00;99.90;;;;;;5044362;28;20033;-75
2024/02/26 04:35:17;;;;;;;6.55;3.50;;;5.90;99.90;;;;;;5044038;28;20033;-74
2024/02/26 04:37:43;;;;;;;7.30;3.45;;;6.00;99.90;;;;;;5044111;28;20183;-74
2024/02/26 04:40:09;;;;;;;7.05;3.55;;;5.90;99.90;;;;;;5038283;28;20048;-75
2024/02/26 04:42:34;;;;;;;7.22;3.65;;;5.90;99.90;;;;;;5038360;28;20040;-75
2024/02/26 04:45:00;;;;;;;7.72;3.38;;;5.90;99.90;;;;;;5034821;28;20026;-74
2024/02/26 04:47:25;;;;;;;6.57;3.40;;;5.90;99.90;;;;;;5041751;28;20277;-74
2024/02/26 04:49:51;;;;;;;6.20;3.47;;;5.90;99.90;;;;;;5045268;28;20036;-75
2024/02/26 04:52:18;;;;;;;7.60;3.63;;;6.00;99.90;;;;;;5044997;28;20059;-75
2024/02/26 04:54:43;;;;;;;8.05;3.65;;;5.90;99.90;;;;;;5035991;28;20029;-73
2024/02/26 04:57:09;;;;;;;9.50;3.83;;;5.90;99.90;;;;;;5041393;28;20051;-74
2024/02/26 04:59:34;;;;;;;7.10;3.42;;;5.90;99.90;;;;;;5039519;28;20033;-74
2024/02/26 05:02:00;;;;;;;9.18;3.50;;;5.90;99.90;;;;;;5034738;28;20029;-74
2024/02/26 05:04:25;;;;;;;7.53;3.92;;;5.90;99.90;;;;;;5046473;28;20122;-75
2024/02/26 05:06:51;;;;;;;7.38;3.65;;;5.90;99.90;;;;;;5045806;28;20037;-75
2024/02/26 05:09:17;;;;;;;8.10;3.10;;;5.90;99.90;;;;;;5045608;28;20041;-75
2024/02/26 05:11:42;;;;;;;6.80;3.67;;;5.90;99.90;;;;;;5044554;28;20036;-72
2024/02/26 05:14:08;;;;;;;6.45;3.40;;;5.90;99.90;;;;;;5045205;28;20401;-75
2024/02/26 05:16:33;;;;;;;5.05;3.17;;;5.90;99.90;;;;;;5044993;28;20516;-74
2024/02/26 05:18:59;;;;;;;7.63;3.67;;;5.90;99.90;;;;;;5044683;28;20064;-75
2024/02/26 05:21:24;;;;;;;6.70;3.35;;;5.90;99.90;;;;;;5035900;28;20048;-75
2024/02/26 05:23:50;;;;;;;10.07;3.90;;;5.90;99.90;;;;;;5035802;28;20127;-74
2024/02/26 05:26:22;;;;;;;7.90;3.67;;;5.90;99.90;;;;;;5037199;28;20137;-75
2024/02/26 05:28:48;;;;;;;5.75;3.00;;;5.90;99.90;;;;;;5036921;28;20549;-76
2024/02/26 05:31:15;;;;;;;8.05;4.15;;;6.00;99.90;;;;;;5041131;28;20575;-75
2024/02/26 05:33:40;;;;;;;8.82;4.13;;;5.90;99.90;;;;;;5038011;28;20513;-76
2024/02/26 05:36:06;;;;;;;10.05;4.03;;;5.90;99.90;;;;;;5042480;28;20025;-74
2024/02/26 05:38:32;;;;;;;5.97;3.33;;;5.90;99.90;;;;;;5042997;28;20099;-73
2024/02/26 05:41:01;;;;;;;8.02;3.53;;;5.90;99.90;;;;;;5042304;28;20053;-74
2024/02/26 05:43:27;;;;;;;9.98;3.85;;;5.90;99.90;;;;;;5047008;28;20040;-74
2024/02/26 05:45:53;;;;;;;7.90;3.97;;;5.90;99.90;;;;;;5044995;28;20120;-75
2024/02/26 05:48:19;;;;;;;7.63;3.78;;;5.90;99.90;;;;;;5046529;28;20729;-74
2024/02/26 05:50:45;;;;;;;6.10;3.58;;;5.90;99.90;;;;;;5037722;28;20033;-75
2024/02/26 05:53:11;;;;;;;7.40;3.28;;;5.90;99.90;;;;;;5037842;28;20418;-77
2024/02/26 05:55:37;;;;;;;9.82;3.88;;;5.90;99.90;;;;;;5048030;28;20033;-73
2024/02/26 05:58:02;;;;;;;9.25;4.43;;;5.90;99.90;;;;;;5030966;28;20033;-75
2024/02/26 06:00:28;;;;;;;7.80;3.97;;;5.90;99.90;;;;;;5030412;28;20044;-75
2024/02/26 06:02:54;;;;;;;8.68;3.33;;;5.80;99.90;;;;;;5039901;28;20032;-74
2024/02/26 06:05:19;;;;;;;7.50;3.22;;;5.80;99.90;;;;;;5042010;28;20021;-75
2024/02/26 06:07:45;;;;;;;8.57;3.88;;;5.80;99.90;;;;;;5038610;28;20688;-76
2024/02/26 06:10:10;;;;;;;7.60;3.70;;;5.80;99.90;;;;;;5042047;28;20057;-74
2024/02/26 06:12:36;;;;;;;9.55;4.10;;;5.80;99.90;;;;;;5038361;28;20072;-73
2024/02/26 06:15:04;;;;;;;7.88;3.85;;;5.90;99.90;;;;;;5041652;28;20037;-75
2024/02/26 06:17:29;;;;;;;8.25;3.80;;;5.90;99.90;;;;;;5044028;28;20037;-75
2024/02/26 06:19:55;;;;;;;7.90;3.70;;;5.80;99.90;;;;;;5044256;28;20037;-75
2024/02/26 06:22:20;;;;;;;8.82;4.32;;;5.90;99.90;;;;;;5043693;28;20462;-75
2024/02/26 06:24:46;;;;;;;10.38;4.95;;;5.90;99.90;;;;;;5041149;28;20042;-75
2024/02/26 06:27:12;;;;;;;9.65;4.57;;;5.90;99.90;;;;;;5043478;28;20041;-75
2024/02/26 06:29:37;;;;;;;9.90;4.57;;;5.90;99.90;;;;;;5039681;28;20037;-74
2024/02/26 06:32:03;;;;;;;12.98;4.80;;;5.90;99.90;;;;;;5041557;28;20048;-74
2024/02/26 06:34:29;;;;;;;12.15;5.18;;;5.90;99.90;;;;;;5042137;28;20410;-74
2024/02/26 06:36:54;;;;;;;11.68;5.00;;;5.90;99.90;;;;;;5043608;28;20071;-74
2024/02/26 06:39:20;;;;;;;13.30;5.25;;;5.80;99.90;;;;;;5040039;28;20124;-74
2024/02/26 06:41:46;;;;;;;14.15;6.40;;;5.90;99.90;;;;;;5022580;28;20111;-75
2024/02/26 06:44:13;;;;;;;10.32;4.70;;;5.90;99.90;;;;;;5029968;28;20086;-75
2024/02/26 06:46:39;;;;;;;12.15;5.35;;;5.90;99.90;;;;;;5038672;28;20398;-74
2024/02/26 06:49:05;;;;;;;16.13;6.80;;;5.90;99.90;;;;;;5029710;28;20409;-75
2024/02/26 06:51:30;;;;;;;12.75;5.95;;;5.90;99.90;;;;;;5023366;28;20045;-74
2024/02/26 06:53:56;;;;;;;12.85;6.18;;;5.90;99.90;;;;;;5039481;28;20056;-77
2024/02/26 06:56:21;;;;;;;14.65;6.10;;;5.90;99.90;;;;;;5039543;28;20045;-74
2024/02/26 06:58:47;;;;;;;12.93;6.32;;;5.90;99.90;;;;;;5026031;28;20112;-73
2024/02/26 07:01:13;;;;;;;13.90;6.45;;;5.90;99.90;;;;;;5029847;28;20083;-74
2024/02/26 07:03:40;;;;;;;16.25;6.97;;;5.90;99.90;;;;;;5041802;28;20160;-74
2024/02/26 07:06:06;;;;;;;16.42;6.78;;;5.80;99.90;;;;;;5045261;28;20051;-74
2024/02/26 07:08:32;;;;;;;15.73;7.00;;;5.80;99.90;;;;;;5028454;28;20033;-74
2024/02/26 07:10:58;;;;;;;19.10;7.95;;;5.80;99.90;;;;;;5043981;28;20040;-74
2024/02/26 07:13:23;;;;;;;19.20;8.55;;;5.80;99.90;;;;;;5045983;28;20033;-74
2024/02/26 07:15:49;;;;;;;17.65;7.93;;;5.80;99.90;;;;;;5025028;28;20071;-75
2024/02/26 07:18:14;;;;;;;16.80;7.78;;;5.80;99.90;;;;;;5048060;28;20103;-74
2024/02/26 07:20:40;;;;;;;16.25;7.60;;;5.80;99.90;;;;;;5039770;28;20577;-75
2024/02/26 07:23:06;;;;;;;19.25;8.27;;;5.70;99.90;;;;;;5026977;28;20112;-75
2024/02/26 07:25:32;;;;;;;19.05;7.90;;;5.80;99.90;;;;;;5039033;28;20033;-75
2024/02/26 07:27:58;;;;;;;20.15;8.68;;;5.70;99.90;;;;;;5027169;28;20025;-76
2024/02/26 07:30:24;;;;;;;23.17;9.32;;;5.80;99.90;;;;;;5027507;28;20040;-74
2024/02/26 07:32:50;;;;;;;20.67;8.77;;;5.80;99.90;;;;;;5026703;28;20120;-74
2024/02/26 07:35:17;;;;;;;18.50;9.02;;;5.70;99.90;;;;;;5027752;28;20521;-78
2024/02/26 07:37:43;;;;;;;20.63;7.72;;;5.80;99.90;;;;;;5041401;28;20041;-73
2024/02/26 07:40:09;;;;;;;18.15;8.38;;;5.80;99.90;;;;;;5043898;28;20055;-75
2024/02/26 07:42:34;;;;;;;19.23;8.43;;;5.80;99.90;;;;;;5042320;28;20509;-76
2024/02/26 07:45:00;;;;;;;16.88;7.93;;;5.80;99.90;;;;;;5027496;28;20120;-75
2024/02/26 07:47:25;;;;;;;19.30;9.80;;;5.80;99.90;;;;;;5027912;28;20041;-75
2024/02/26 07:49:51;;;;;;;19.75;7.43;;;5.80;99.90;;;;;;5039623;28;20041;-75
2024/02/26 07:52:16;;;;;;;19.10;8.13;;;5.80;99.90;;;;;;5023491;28;20055;-75
2024/02/26 07:54:42;;;;;;;15.52;7.70;;;5.80;99.90;;;;;;5039298;28;20026;-73
2024/02/26 07:57:08;;;;;;;15.77;7.53;;;5.80;99.90;;;;;;5044536;28;20083;-75
2024/02/26 07:59:33;;;;;;;16.08;7.90;;;5.80;99.90;;;;;;5038945;28;20037;-75
2024/02/26 08:01:59;;;;;;;12.38;6.63;;;5.80;99.90;;;;;;5043145;28;20041;-75
2024/02/26 08:04:26;;;;;;;13.85;6.93;;;5.80;99.90;;;;;;5043307;28;20033;-75
2024/02/26 08:06:52;;;;;;;14.57;7.10;;;5.80;99.90;;;;;;5043003;28;20055;-74
2024/02/26 08:09:17;;;;;;;12.27;6.68;;;5.80;99.90;;;;;;5042143;28;20037;-75
2024/02/26 08:11:43;;;;;;;12.70;6.15;;;5.90;99.90;;;;;;5036321;28;20040;-74
2024/02/26 08:14:08;;;;;;;11.35;5.53;;;5.80;99.90;;;;;;5036584;28;20056;-75
2024/02/26 08:16:34;;;;;;;10.43;5.20;;;5.80;99.90;;;;;;5034102;28;20091;-76
2024/02/26 08:18:59;;;;;;;14.48;5.65;;;5.80;99.90;;;;;;5043306;28;20107;-76
2024/02/26 08:21:25;;;;;;;10.55;5.40;;;5.80;99.90;;;;;;5045308;28;20120;-75
2024/02/26 08:23:50;;;;;;;10.45;5.50;;;5.80;99.90;;;;;;5034744;28;20045;-76
2024/02/26 08:26:16;;;;;;;11.68;5.55;;;5.90;99.90;;;;;;5036393;28;20048;-75
2024/02/26 08:28:41;;;;;;;11.45;5.65;;;5.80;99.90;;;;;;5044088;28;20562;-74
2024/02/26 08:31:07;;;;;;;9.98;5.15;;;5.80;99.90;;;;;;5045388;28;20033;-76
2024/02/26 08:33:35;;;;;;;10.65;5.13;;;5.80;99.90;;;;;;5041925;28;20078;-75
2024/02/26 08:36:05;;;;;;;9.82;4.93;;;5.80;99.90;;;;;;5034370;28;20030;-74
2024/02/26 08:38:30;;;;;;;11.40;4.70;;;5.90;99.90;;;;;;5044143;28;20032;-75
2024/02/26 08:40:55;;;;;;;8.32;4.72;;;5.80;99.90;;;;;;5039967;28;20033;-75
2024/02/26 08:43:21;;;;;;;9.93;4.95;;;5.80;99.90;;;;;;5042837;28;20126;-75
2024/02/26 08:45:46;;;;;;;9.73;4.95;;;5.80;99.90;;;;;;5042527;28;20045;-74
2024/02/26 08:48:12;;;;;;;9.82;4.82;;;5.80;99.90;;;;;;5042482;28;20025;-75
2024/02/26 08:50:37;;;;;;;12.75;4.65;;;5.80;99.90;;;;;;5042447;28;20517;-75
2024/02/26 08:53:04;;;;;;;7.57;3.63;;;5.80;99.90;;;;;;5036064;28;20033;-78
2024/02/26 08:55:29;;;;;;;8.70;4.13;;;5.80;99.90;;;;;;5036432;28;20059;-75
2024/02/26 08:57:55;;;;;;;11.30;4.55;;;5.80;99.90;;;;;;5035917;28;20511;-75
2024/02/26 09:00:21;;;;;;;7.95;4.05;;;5.80;99.90;;;;;;5037855;28;20029;-76
2024/02/26 09:02:48;;;;;;;7.47;3.55;;;5.90;99.90;;;;;;5031821;28;20041;-75
2024/02/26 09:05:14;;;;;;;8.23;4.20;;;5.90;99.90;;;;;;5045221;28;20648;-73
2024/02/26 09:07:39;;;;;;;7.63;3.30;;;5.90;99.90;;;;;;5043758;28;20048;-75
2024/02/26 09:10:08;;;;;;;9.70;3.97;;;5.90;99.90;;;;;;5045478;28;20048;-75
2024/02/26 09:12:33;;;;;;;7.47;3.15;;;5.90;99.90;;;;;;5040965;28;20118;-74
2024/02/26 09:14:59;;;;;;;7.07;3.40;;;5.80;99.90;;;;;;5040089;28;20512;-76
2024/02/26 09:17:24;;;;;;;10.48;3.47;;;5.80;99.90;;;;;;5044566;28;20610;-75
2024/02/26 09:19:50;;;;;;;5.78;2.58;;;5.80;99.90;;;;;;5037829;28;20610;-76
2024/02/26 09:22:15;;;;;;;8.35;3.13;;;5.80;99.90;;;;;;5042520;28;20478;-75
2024/02/26 09:24:41;;;;;;;6.50;2.83;;;5.80;99.90;;;;;;5034081;28;20060;-76
2024/02/26 09:27:07;;;;;;;7.55;3.05;;;5.80;99.90;;;;;;5033551;28;20556;-77
2024/02/26 09:29:32;;;;;;;4.90;2.40;;;5.80;99.90;;;;;;5033869;28;20056;-75
2024/02/26 09:31:58;;;;;;;6.88;2.70;;;5.80;99.90;;;;;;5031376;28;20036;-76
2024/02/26 09:34:24;;;;;;;6.18;3.17;;;5.80;99.90;;;;;;5031815;28;20056;-76
2024/02/26 09:36:49;;;;;;;5.88;3.00;;;5.80;99.90;;;;;;5037963;28;20040;-76
2024/02/26 09:39:20;;;;;;;4.82;2.47;;;5.80;99.90;;;;;;5033546;28;20037;-75
2024/02/26 09:41:45;;;;;;;5.28;2.55;;;5.80;99.90;;;;;;5030704;28;20044;-75
2024/02/26 09:44:12;;;;;;;5.03;2.90;;;5.70;99.90;;;;;;5036923;28;20403;-75
2024/02/26 09:46:38;;;;;;;8.50;3.03;;;5.70;99.90;;;;;;5039640;28;20116;-75
2024/02/26 09:49:04;;;;;;;5.47;2.58;;;5.70;99.90;;;;;;5036606;28;20596;-75
2024/02/26 09:51:31;;;;;;;8.77;2.85;;;5.70;99.90;;;;;;5034600;28;20256;-76
2024/02/26 09:54:01;;;;;;;5.20;2.92;;;5.70;99.90;;;;;;5038953;28;20041;-76
2024/02/26 09:56:27;;;;;;;5.32;2.47;;;5.70;99.90;;;;;;5040878;28;20114;-76
2024/02/26 09:58:55;;;;;;;5.68;2.75;;;5.60;99.90;;;;;;5037337;28;20498;-77
2024/02/26 10:01:21;;;;;;;6.15;2.60;;;5.60;99.90;;;;;;5031446;28;20045;-75
2024/02/26 10:03:55;;;;;;;7.88;3.35;;;5.60;99.90;;;;;;5035978;28;20033;-75
2024/02/26 10:06:21;;;;;;;5.25;2.83;;;5.60;99.90;;;;;;5036983;28;20029;-75
2024/02/26 10:08:48;;;;;;;7.20;2.60;;;5.60;99.90;;;;;;5034481;28;20246;-75
2024/02/26 10:11:15;;;;;;;5.43;2.50;;;5.60;99.90;;;;;;5034488;28;20517;-76
2024/02/26 10:13:41;;;;;;;5.07;2.75;;;5.60;99.90;;;;;;5037487;28;20036;-74
2024/02/26 10:16:07;;;;;;;6.03;2.50;;;5.60;99.90;;;;;;5037421;28;20025;-74
2024/02/26 10:18:46;;;;;;;6.25;2.88;;;5.60;99.90;;;;;;5036939;28;20837;-74
2024/02/26 10:21:12;;;;;;;5.03;2.53;;;5.50;99.90;;;;;;5036024;28;20033;-76
2024/02/26 10:23:37;;;;;;;6.07;2.92;;;5.60;99.90;;;;;;5036756;28;22020;-72
2024/02/26 10:26:03;;;;;;;5.45;2.78;;;5.60;99.90;;;;;;5039165;28;20051;-75
2024/02/26 10:28:30;;;;;;;7.57;3.13;;;5.50;99.90;;;;;;5036185;28;20045;-74
2024/02/26 10:30:55;;;;;;;5.85;2.53;;;5.60;99.90;;;;;;5033968;28;20037;-74
2024/02/26 10:33:21;;;;;;;17.40;4.07;;;5.60;99.90;;;;;;5037054;28;20099;-77
2024/02/26 10:35:47;;;;;;;7.20;3.25;;;5.60;99.90;;;;;;5034743;28;20025;-74
2024/02/26 10:38:13;;;;;;;5.65;3.00;;;5.60;99.90;;;;;;5035485;28;20029;-75
2024/02/26 10:40:39;;;;;;;5.22;2.60;;;5.60;99.90;;;;;;5034329;28;20635;-74
2024/02/26 10:43:04;;;;;;;6.03;2.97;;;5.60;99.90;;;;;;5041504;28;20029;-75
2024/02/26 10:45:32;;;;;;;5.65;2.90;;;5.60;99.90;;;;;;5038255;28;20053;-73
2024/02/26 10:47:57;;;;;;;5.10;2.50;;;5.60;99.90;;;;;;5033123;28;20042;-75
2024/02/26 10:50:23;;;;;;;4.80;2.40;;;5.70;99.90;;;;;;5033851;28;20105;-73
2024/02/26 10:52:50;;;;;;;6.57;3.05;;;5.60;99.90;;;;;;5034135;28;20548;-75
2024/02/26 10:55:20;;;;;;;7.18;2.88;;;5.70;99.90;;;;;;5039914;28;20105;-75
2024/02/26 10:57:45;;;;;;;5.47;3.00;;;5.70;99.90;;;;;;5046590;28;20029;-73
2024/02/26 11:00:15;;;;;;;4.50;2.40;;;5.60;99.90;;;;;;5047842;28;20033;-74
2024/02/26 11:02:43;;;;;;;6.55;3.22;;;5.70;99.90;;;;;;5036646;28;20038;-74
2024/02/26 11:05:11;;;;;;;5.55;2.70;;;5.70;99.90;;;;;;5037407;28;20041;-75
2024/02/26 11:07:37;;;;;;;4.85;2.50;;;5.70;99.90;;;;;;5033044;28;20077;-75
2024/02/26 11:10:04;;;;;;;4.10;2.30;;;5.70;99.90;;;;;;5034771;28;20056;-74
2024/02/26 11:12:31;;;;;;;5.20;2.90;;;5.70;99.90;;;;;;5032973;28;20041;-74
2024/02/26 11:14:58;;;;;;;4.80;2.33;;;5.70;99.90;;;;;;5032977;28;20064;-75
2024/02/26 11:17:31;;;;;;;5.85;2.30;;;5.80;99.90;;;;;;5034486;28;20049;-76
2024/02/26 11:20:02;;;;;;;6.93;2.97;;;5.80;99.90;;;;;;5034964;28;20033;-76
2024/02/26 11:22:28;;;;;;;6.45;2.90;;;5.80;99.90;;;;;;5035352;28;20037;-76
2024/02/26 11:24:57;;;;;;;5.18;2.63;;;5.80;99.90;;;;;;5034663;28;20041;-75
2024/02/26 11:27:29;;;;;;;8.93;3.28;;;5.90;99.90;;;;;;5035660;28;20045;-75
2024/02/26 11:29:57;;;;;;;8.48;3.65;;;5.90;99.90;;;;;;5032034;28;20060;-76
2024/02/26 11:32:23;;;;;;;5.35;2.50;;;5.90;99.90;;;;;;5032462;28;20045;-76
2024/02/26 11:34:49;;;;;;;10.80;3.15;;;5.90;99.90;;;;;;5026922;28;20047;-75
2024/02/26 11:37:16;;;;;;;6.25;2.75;;;5.90;99.90;;;;;;5034788;28;20125;-74
2024/02/26 11:39:44;;;;;;;5.75;2.70;;;5.90;99.90;;;;;;5030207;28;20041;-74
2024/02/26 11:42:13;;;;;;;7.28;2.97;;;5.90;99.90;;;;;;5035141;28;20564;-75
2024/02/26 11:44:38;;;;;;;5.63;2.72;;;6.00;99.90;;;;;;5030946;28;20040;-73
2024/02/26 11:47:18;;;;;;;11.43;3.53;;;6.00;99.90;;;;;;5035748;28;20033;-74
2024/02/26 11:49:43;;;;;;;6.43;2.65;;;6.00;99.90;;;;;;5033760;28;20037;-75
2024/02/26 11:52:10;;;;;;;4.97;2.83;;;6.00;99.90;;;;;;5032711;28;20398;-74
2024/02/26 11:54:49;;;;;;;6.32;3.55;;;6.00;99.90;;;;;;5031644;28;20045;-74
2024/02/26 11:57:37;;;;;;;6.72;2.72;;;6.10;99.90;;;;;;5033065;28;20049;-75
2024/02/26 12:00:06;;;;;;;7.00;2.60;;;6.10;99.90;;;;;;5035054;28;20034;-74
2024/02/26 12:02:57;;;;;;;5.05;2.63;;;6.10;99.90;;;;;;5033418;28;20437;-75
2024/02/26 12:05:24;;;;;;;6.88;3.42;;;6.10;99.90;;;;;;5026719;28;20060;-76
2024/02/26 12:07:54;;;;;;;7.55;2.67;;;6.10;99.90;;;;;;5031754;28;20120;-76
2024/02/26 12:10:35;;;;;;;5.75;2.92;;;6.10;99.90;;;;;;5039783;28;20049;-76
2024/02/26 12:13:08;;;;;;;5.90;2.35;;;6.10;99.90;;;;;;5035662;28;20113;-76
2024/02/26 12:15:37;;;;;;;6.80;2.35;;;6.10;99.90;;;;;;5043142;28;20029;-74
2024/02/26 12:18:05;;;;;;;8.93;3.00;;;6.10;99.90;;;;;;5035418;28;20024;-75
2024/02/26 12:20:31;;;;;;;4.70;2.28;;;6.20;99.90;;;;;;5053243;28;20064;-75
2024/02/26 12:22:57;;;;;;;5.82;2.53;;;6.20;99.90;;;;;;5054069;28;20041;-75
2024/02/26 12:25:26;;;;;;;9.10;3.28;;;6.20;99.90;;;;;;5049389;28;20040;-75
2024/02/26 12:27:53;;;;;;;12.43;3.40;;;6.20;99.90;;;;;;5031507;28;20033;-74
2024/02/26 12:30:19;;;;;;;4.85;2.40;;;6.20;99.90;;;;;;5038051;28;20041;-74
2024/02/26 12:32:49;;;;;;;4.50;2.33;;;6.20;99.90;;;;;;5032378;28;20387;-75
2024/02/26 12:35:16;;;;;;;5.77;2.53;;;6.20;99.90;;;;;;5050475;28;20063;-76
2024/02/26 12:37:42;;;;;;;4.47;2.40;;;6.20;99.90;;;;;;5052565;28;20274;-75
2024/02/26 12:40:08;;;;;;;11.20;3.65;;;6.20;99.90;;;;;;5038831;28;20063;-75
2024/02/26 12:42:39;;;;;;;9.32;3.03;;;6.20;99.90;;;;;;5054910;28;20490;-75
2024/02/26 12:45:11;;;;;;;10.52;2.85;;;6.20;99.90;;;;;;5041979;28;20032;-76
2024/02/26 12:47:41;;;;;;;10.00;3.15;;;6.20;99.90;;;;;;5061563;28;20046;-74
2024/02/26 12:50:08;;;;;;;4.38;2.38;;;6.30;99.90;;;;;;5029717;28;20060;-75
2024/02/26 12:52:36;;;;;;;5.47;2.05;;;6.30;99.90;;;;;;5055946;28;20040;-75